sensor_id;sensor_type;location;lat;lon;timestamp;P1;durP1;ratioP1;P2;durP2;ratioP2
24143;SDS011;12307;50.828;6.080;2022-09-21T00:01:04;1.27;;;0.80;;
24143;SDS011;12307;50.828;6.080;2022-09-21T00:03:30;1.63;;;0.85;;
24143;SDS011;12307;50.828;6.080;2022-09-21T00:06:00;1.73;;;0.82;;
24143;SDS011;12307;50.828;6.080;2022-09-21T00:08:26;1.20;;;0.77;;
24143;SDS011;12307;50.828;6.080;2022-09-21T00:10:53;1.88;;;1.00;;
24143;SDS011;12307;50.828;6.080;2022-09-21T00:13:19;1.80;;;0.90;;
24143;SDS011;12307;50.828;6.080;2022-09-21T00:15:45;1.13;;;0.70;;
24143;SDS011;12307;50.828;6.080;2022-09-21T00:18:11;2.22;;;0.73;;
24143;SDS011;12307;50.828;6.080;2022-09-21T00:20:39;1.58;;;0.90;;
24143;SDS011;12307;50.828;6.080;2022-09-21T00:23:06;1.70;;;1.00;;
24143;SDS011;12307;50.828;6.080;2022-09-21T00:25:31;1.40;;;0.70;;
24143;SDS011;12307;50.828;6.080;2022-09-21T00:27:58;1.52;;;0.80;;
24143;SDS011;12307;50.828;6.080;2022-09-21T00:30:24;2.28;;;0.90;;
24143;SDS011;12307;50.828;6.080;2022-09-21T00:32:50;1.02;;;0.80;;
24143;SDS011;12307;50.828;6.080;2022-09-21T00:35:17;1.00;;;0.70;;
24143;SDS011;12307;50.828;6.080;2022-09-21T00:37:43;1.40;;;0.70;;
24143;SDS011;12307;50.828;6.080;2022-09-21T00:40:09;1.50;;;0.80;;
24143;SDS011;12307;50.828;6.080;2022-09-21T00:42:34;1.60;;;1.02;;
24143;SDS011;12307;50.828;6.080;2022-09-21T00:45:02;0.95;;;0.70;;
24143;SDS011;12307;50.828;6.080;2022-09-21T00:47:30;1.10;;;0.82;;
24143;SDS011;12307;50.828;6.080;2022-09-21T00:49:59;1.15;;;0.80;;
24143;SDS011;12307;50.828;6.080;2022-09-21T00:52:29;2.45;;;1.00;;
24143;SDS011;12307;50.828;6.080;2022-09-21T00:54:59;1.23;;;0.80;;
24143;SDS011;12307;50.828;6.080;2022-09-21T00:57:29;1.08;;;0.70;;
24143;SDS011;12307;50.828;6.080;2022-09-21T00:59:56;0.90;;;0.70;;
24143;SDS011;12307;50.828;6.080;2022-09-21T01:02:26;1.75;;;0.90;;
24143;SDS011;12307;50.828;6.080;2022-09-21T01:04:52;1.33;;;0.80;;
24143;SDS011;12307;50.828;6.080;2022-09-21T01:07:20;1.30;;;0.80;;
24143;SDS011;12307;50.828;6.080;2022-09-21T01:09:48;1.75;;;0.82;;
24143;SDS011;12307;50.828;6.080;2022-09-21T01:12:20;2.03;;;0.80;;
24143;SDS011;12307;50.828;6.080;2022-09-21T01:15:04;1.42;;;0.88;;
24143;SDS011;12307;50.828;6.080;2022-09-21T01:17:42;1.27;;;1.00;;
24143;SDS011;12307;50.828;6.080;2022-09-21T01:20:33;2.08;;;1.00;;
24143;SDS011;12307;50.828;6.080;2022-09-21T01:23:25;1.85;;;0.80;;
24143;SDS011;12307;50.828;6.080;2022-09-21T01:26:07;1.02;;;0.90;;
24143;SDS011;12307;50.828;6.080;2022-09-21T01:28:57;1.15;;;0.80;;
24143;SDS011;12307;50.828;6.080;2022-09-21T01:31:35;1.75;;;1.00;;
24143;SDS011;12307;50.828;6.080;2022-09-21T01:34:06;1.02;;;0.80;;
24143;SDS011;12307;50.828;6.080;2022-09-21T01:36:34;1.38;;;0.77;;
24143;SDS011;12307;50.828;6.080;2022-09-21T01:39:04;1.17;;;0.75;;
24143;SDS011;12307;50.828;6.080;2022-09-21T01:41:33;1.05;;;0.80;;
24143;SDS011;12307;50.828;6.080;2022-09-21T01:44:05;1.50;;;0.93;;
24143;SDS011;12307;50.828;6.080;2022-09-21T01:46:32;1.15;;;0.90;;
24143;SDS011;12307;50.828;6.080;2022-09-21T01:49:00;1.23;;;0.90;;
24143;SDS011;12307;50.828;6.080;2022-09-21T01:51:30;2.17;;;1.10;;
24143;SDS011;12307;50.828;6.080;2022-09-21T01:54:00;1.48;;;0.90;;
24143;SDS011;12307;50.828;6.080;2022-09-21T01:56:29;2.13;;;0.85;;
24143;SDS011;12307;50.828;6.080;2022-09-21T01:59:00;1.63;;;0.93;;
24143;SDS011;12307;50.828;6.080;2022-09-21T02:01:34;1.23;;;0.88;;
24143;SDS011;12307;50.828;6.080;2022-09-21T02:04:07;1.60;;;0.90;;
24143;SDS011;12307;50.828;6.080;2022-09-21T02:06:35;1.48;;;0.90;;
24143;SDS011;12307;50.828;6.080;2022-09-21T02:09:04;1.50;;;0.85;;
24143;SDS011;12307;50.828;6.080;2022-09-21T02:11:29;1.52;;;0.90;;
24143;SDS011;12307;50.828;6.080;2022-09-21T02:13:55;1.23;;;0.90;;
24143;SDS011;12307;50.828;6.080;2022-09-21T02:16:26;2.08;;;0.75;;
24143;SDS011;12307;50.828;6.080;2022-09-21T02:19:01;1.45;;;0.93;;
24143;SDS011;12307;50.828;6.080;2022-09-21T02:21:37;1.25;;;1.00;;
24143;SDS011;12307;50.828;6.080;2022-09-21T02:24:11;1.80;;;0.90;;
24143;SDS011;12307;50.828;6.080;2022-09-21T02:26:47;1.58;;;1.00;;
24143;SDS011;12307;50.828;6.080;2022-09-21T02:29:18;1.65;;;0.90;;
24143;SDS011;12307;50.828;6.080;2022-09-21T02:31:50;2.28;;;0.88;;
24143;SDS011;12307;50.828;6.080;2022-09-21T02:34:23;1.95;;;0.80;;
24143;SDS011;12307;50.828;6.080;2022-09-21T02:36:59;1.02;;;0.90;;
24143;SDS011;12307;50.828;6.080;2022-09-21T02:39:31;1.40;;;0.95;;
24143;SDS011;12307;50.828;6.080;2022-09-21T02:42:04;1.30;;;1.02;;
24143;SDS011;12307;50.828;6.080;2022-09-21T02:44:35;1.58;;;0.90;;
24143;SDS011;12307;50.828;6.080;2022-09-21T02:47:06;2.40;;;0.98;;
24143;SDS011;12307;50.828;6.080;2022-09-21T02:49:37;1.08;;;0.93;;
24143;SDS011;12307;50.828;6.080;2022-09-21T02:52:06;1.30;;;0.93;;
24143;SDS011;12307;50.828;6.080;2022-09-21T02:54:34;1.15;;;0.80;;
24143;SDS011;12307;50.828;6.080;2022-09-21T02:57:02;1.85;;;0.90;;
24143;SDS011;12307;50.828;6.080;2022-09-21T02:59:29;0.95;;;0.85;;
24143;SDS011;12307;50.828;6.080;2022-09-21T03:01:55;1.77;;;1.20;;
24143;SDS011;12307;50.828;6.080;2022-09-21T03:04:22;1.30;;;0.80;;
24143;SDS011;12307;50.828;6.080;2022-09-21T03:06:49;1.77;;;0.75;;
24143;SDS011;12307;50.828;6.080;2022-09-21T03:09:15;1.67;;;1.02;;
24143;SDS011;12307;50.828;6.080;2022-09-21T03:11:41;1.33;;;0.80;;
24143;SDS011;12307;50.828;6.080;2022-09-21T03:14:07;1.13;;;0.80;;
24143;SDS011;12307;50.828;6.080;2022-09-21T03:16:33;1.65;;;0.90;;
24143;SDS011;12307;50.828;6.080;2022-09-21T03:18:59;1.40;;;0.95;;
24143;SDS011;12307;50.828;6.080;2022-09-21T03:21:26;1.65;;;0.90;;
24143;SDS011;12307;50.828;6.080;2022-09-21T03:23:52;1.70;;;0.98;;
24143;SDS011;12307;50.828;6.080;2022-09-21T03:26:17;1.52;;;0.95;;
24143;SDS011;12307;50.828;6.080;2022-09-21T03:28:46;1.42;;;0.90;;
24143;SDS011;12307;50.828;6.080;2022-09-21T03:31:12;1.17;;;0.70;;
24143;SDS011;12307;50.828;6.080;2022-09-21T03:33:37;1.23;;;0.80;;
24143;SDS011;12307;50.828;6.080;2022-09-21T03:36:03;1.77;;;1.02;;
24143;SDS011;12307;50.828;6.080;2022-09-21T03:38:30;1.00;;;0.90;;
24143;SDS011;12307;50.828;6.080;2022-09-21T03:40:56;1.48;;;1.00;;
24143;SDS011;12307;50.828;6.080;2022-09-21T03:43:22;1.52;;;0.90;;
24143;SDS011;12307;50.828;6.080;2022-09-21T03:45:48;1.25;;;0.90;;
24143;SDS011;12307;50.828;6.080;2022-09-21T03:48:13;1.42;;;0.73;;
24143;SDS011;12307;50.828;6.080;2022-09-21T03:50:39;1.38;;;0.73;;
24143;SDS011;12307;50.828;6.080;2022-09-21T03:53:05;1.02;;;0.85;;
24143;SDS011;12307;50.828;6.080;2022-09-21T03:55:33;1.40;;;1.00;;
24143;SDS011;12307;50.828;6.080;2022-09-21T03:57:59;0.70;;;0.60;;
24143;SDS011;12307;50.828;6.080;2022-09-21T04:00:25;3.80;;;1.00;;
24143;SDS011;12307;50.828;6.080;2022-09-21T04:02:51;1.35;;;0.95;;
24143;SDS011;12307;50.828;6.080;2022-09-21T04:05:17;2.15;;;0.85;;
24143;SDS011;12307;50.828;6.080;2022-09-21T04:07:43;1.58;;;0.98;;
24143;SDS011;12307;50.828;6.080;2022-09-21T04:10:13;1.15;;;0.90;;
24143;SDS011;12307;50.828;6.080;2022-09-21T04:12:42;1.73;;;1.00;;
24143;SDS011;12307;50.828;6.080;2022-09-21T04:15:09;1.23;;;0.77;;
24143;SDS011;12307;50.828;6.080;2022-09-21T04:17:35;0.90;;;0.80;;
24143;SDS011;12307;50.828;6.080;2022-09-21T04:20:01;1.40;;;0.75;;
24143;SDS011;12307;50.828;6.080;2022-09-21T04:22:27;1.00;;;0.70;;
24143;SDS011;12307;50.828;6.080;2022-09-21T04:24:53;1.25;;;1.00;;
24143;SDS011;12307;50.828;6.080;2022-09-21T04:27:19;1.15;;;0.80;;
24143;SDS011;12307;50.828;6.080;2022-09-21T04:29:46;1.25;;;0.90;;
24143;SDS011;12307;50.828;6.080;2022-09-21T04:32:11;2.13;;;1.05;;
24143;SDS011;12307;50.828;6.080;2022-09-21T04:34:39;2.45;;;0.95;;
24143;SDS011;12307;50.828;6.080;2022-09-21T04:37:05;1.10;;;0.90;;
24143;SDS011;12307;50.828;6.080;2022-09-21T04:39:32;2.33;;;1.02;;
24143;SDS011;12307;50.828;6.080;2022-09-21T04:41:57;1.67;;;0.80;;
24143;SDS011;12307;50.828;6.080;2022-09-21T04:44:23;1.15;;;0.80;;
24143;SDS011;12307;50.828;6.080;2022-09-21T04:46:50;1.52;;;0.82;;
24143;SDS011;12307;50.828;6.080;2022-09-21T04:49:16;1.15;;;0.93;;
24143;SDS011;12307;50.828;6.080;2022-09-21T04:51:41;1.00;;;0.90;;
24143;SDS011;12307;50.828;6.080;2022-09-21T04:54:07;2.03;;;0.85;;
24143;SDS011;12307;50.828;6.080;2022-09-21T04:56:33;1.45;;;0.90;;
24143;SDS011;12307;50.828;6.080;2022-09-21T04:58:58;1.25;;;0.82;;
24143;SDS011;12307;50.828;6.080;2022-09-21T05:01:24;1.42;;;1.10;;
24143;SDS011;12307;50.828;6.080;2022-09-21T05:03:51;1.13;;;0.77;;
24143;SDS011;12307;50.828;6.080;2022-09-21T05:06:17;1.92;;;1.17;;
24143;SDS011;12307;50.828;6.080;2022-09-21T05:08:43;1.25;;;1.00;;
24143;SDS011;12307;50.828;6.080;2022-09-21T05:11:27;1.25;;;0.90;;
24143;SDS011;12307;50.828;6.080;2022-09-21T05:13:53;1.30;;;0.90;;
24143;SDS011;12307;50.828;6.080;2022-09-21T05:16:18;1.40;;;1.10;;
24143;SDS011;12307;50.828;6.080;2022-09-21T05:18:45;1.20;;;0.98;;
24143;SDS011;12307;50.828;6.080;2022-09-21T05:21:13;1.90;;;0.90;;
24143;SDS011;12307;50.828;6.080;2022-09-21T05:23:39;1.67;;;0.95;;
24143;SDS011;12307;50.828;6.080;2022-09-21T05:26:05;1.60;;;1.00;;
24143;SDS011;12307;50.828;6.080;2022-09-21T05:28:31;1.42;;;0.93;;
24143;SDS011;12307;50.828;6.080;2022-09-21T05:30:58;0.90;;;0.73;;
24143;SDS011;12307;50.828;6.080;2022-09-21T05:33:28;3.58;;;1.20;;
24143;SDS011;12307;50.828;6.080;2022-09-21T05:35:58;1.20;;;1.05;;
24143;SDS011;12307;50.828;6.080;2022-09-21T05:38:30;1.08;;;0.98;;
24143;SDS011;12307;50.828;6.080;2022-09-21T05:40:57;1.40;;;0.90;;
24143;SDS011;12307;50.828;6.080;2022-09-21T05:43:23;1.48;;;1.10;;
24143;SDS011;12307;50.828;6.080;2022-09-21T05:45:50;1.08;;;0.90;;
24143;SDS011;12307;50.828;6.080;2022-09-21T05:48:22;1.10;;;0.70;;
24143;SDS011;12307;50.828;6.080;2022-09-21T05:50:53;1.65;;;0.80;;
24143;SDS011;12307;50.828;6.080;2022-09-21T05:53:30;1.35;;;0.82;;
24143;SDS011;12307;50.828;6.080;2022-09-21T05:56:11;1.35;;;0.90;;
24143;SDS011;12307;50.828;6.080;2022-09-21T05:58:45;1.25;;;0.82;;
24143;SDS011;12307;50.828;6.080;2022-09-21T06:01:20;2.03;;;1.00;;
24143;SDS011;12307;50.828;6.080;2022-09-21T06:03:57;1.60;;;0.90;;
24143;SDS011;12307;50.828;6.080;2022-09-21T06:06:24;1.67;;;1.00;;
24143;SDS011;12307;50.828;6.080;2022-09-21T06:08:51;1.63;;;0.77;;
24143;SDS011;12307;50.828;6.080;2022-09-21T06:11:16;1.30;;;0.90;;
24143;SDS011;12307;50.828;6.080;2022-09-21T06:13:42;1.20;;;1.00;;
24143;SDS011;12307;50.828;6.080;2022-09-21T06:16:08;1.15;;;0.90;;
24143;SDS011;12307;50.828;6.080;2022-09-21T06:18:35;1.00;;;0.70;;
24143;SDS011;12307;50.828;6.080;2022-09-21T06:21:02;1.85;;;1.20;;
24143;SDS011;12307;50.828;6.080;2022-09-21T06:23:28;1.00;;;0.90;;
24143;SDS011;12307;50.828;6.080;2022-09-21T06:25:55;1.13;;;0.98;;
24143;SDS011;12307;50.828;6.080;2022-09-21T06:28:20;2.38;;;0.90;;
24143;SDS011;12307;50.828;6.080;2022-09-21T06:30:49;1.85;;;0.82;;
24143;SDS011;12307;50.828;6.080;2022-09-21T06:33:15;1.02;;;0.93;;
24143;SDS011;12307;50.828;6.080;2022-09-21T06:35:49;1.30;;;1.00;;
24143;SDS011;12307;50.828;6.080;2022-09-21T06:38:16;1.40;;;0.90;;
24143;SDS011;12307;50.828;6.080;2022-09-21T06:40:42;1.95;;;1.10;;
24143;SDS011;12307;50.828;6.080;2022-09-21T06:43:09;1.20;;;1.00;;
24143;SDS011;12307;50.828;6.080;2022-09-21T06:45:34;1.67;;;0.98;;
24143;SDS011;12307;50.828;6.080;2022-09-21T06:48:00;1.77;;;1.20;;
24143;SDS011;12307;50.828;6.080;2022-09-21T06:50:26;1.55;;;1.10;;
24143;SDS011;12307;50.828;6.080;2022-09-21T06:52:52;1.80;;;1.17;;
24143;SDS011;12307;50.828;6.080;2022-09-21T06:55:18;5.18;;;1.30;;
24143;SDS011;12307;50.828;6.080;2022-09-21T06:57:44;1.90;;;1.00;;
24143;SDS011;12307;50.828;6.080;2022-09-21T07:00:12;1.20;;;1.00;;
24143;SDS011;12307;50.828;6.080;2022-09-21T07:02:41;1.83;;;0.90;;
24143;SDS011;12307;50.828;6.080;2022-09-21T07:05:07;1.70;;;1.23;;
24143;SDS011;12307;50.828;6.080;2022-09-21T07:07:33;2.45;;;1.27;;
24143;SDS011;12307;50.828;6.080;2022-09-21T07:10:00;2.15;;;1.30;;
24143;SDS011;12307;50.828;6.080;2022-09-21T07:12:26;2.45;;;1.13;;
24143;SDS011;12307;50.828;6.080;2022-09-21T07:14:52;1.83;;;1.30;;
24143;SDS011;12307;50.828;6.080;2022-09-21T07:17:19;2.35;;;1.10;;
24143;SDS011;12307;50.828;6.080;2022-09-21T07:19:45;1.75;;;1.02;;
24143;SDS011;12307;50.828;6.080;2022-09-21T07:22:11;1.52;;;1.20;;
24143;SDS011;12307;50.828;6.080;2022-09-21T07:24:37;2.90;;;1.27;;
24143;SDS011;12307;50.828;6.080;2022-09-21T07:27:02;4.63;;;1.17;;
24143;SDS011;12307;50.828;6.080;2022-09-21T07:29:29;1.75;;;1.10;;
24143;SDS011;12307;50.828;6.080;2022-09-21T07:31:55;2.88;;;1.40;;
24143;SDS011;12307;50.828;6.080;2022-09-21T07:34:22;3.10;;;1.65;;
24143;SDS011;12307;50.828;6.080;2022-09-21T07:36:47;4.35;;;1.60;;
24143;SDS011;12307;50.828;6.080;2022-09-21T07:39:13;2.13;;;1.30;;
24143;SDS011;12307;50.828;6.080;2022-09-21T07:41:39;2.72;;;1.50;;
24143;SDS011;12307;50.828;6.080;2022-09-21T07:44:05;1.73;;;1.23;;
24143;SDS011;12307;50.828;6.080;2022-09-21T07:46:30;3.95;;;1.50;;
24143;SDS011;12307;50.828;6.080;2022-09-21T07:48:56;4.32;;;1.25;;
24143;SDS011;12307;50.828;6.080;2022-09-21T07:51:23;3.45;;;1.25;;
24143;SDS011;12307;50.828;6.080;2022-09-21T07:53:52;2.50;;;1.35;;
24143;SDS011;12307;50.828;6.080;2022-09-21T07:56:23;2.67;;;1.42;;
24143;SDS011;12307;50.828;6.080;2022-09-21T07:58:49;4.78;;;1.40;;
24143;SDS011;12307;50.828;6.080;2022-09-21T08:01:30;3.25;;;1.58;;
24143;SDS011;12307;50.828;6.080;2022-09-21T08:03:56;3.45;;;1.60;;
24143;SDS011;12307;50.828;6.080;2022-09-21T08:06:24;2.67;;;1.42;;
24143;SDS011;12307;50.828;6.080;2022-09-21T08:08:52;2.78;;;1.60;;
24143;SDS011;12307;50.828;6.080;2022-09-21T08:11:18;3.85;;;1.60;;
24143;SDS011;12307;50.828;6.080;2022-09-21T08:13:50;3.67;;;1.45;;
24143;SDS011;12307;50.828;6.080;2022-09-21T08:16:17;3.33;;;1.60;;
24143;SDS011;12307;50.828;6.080;2022-09-21T08:18:42;5.72;;;1.85;;
24143;SDS011;12307;50.828;6.080;2022-09-21T08:21:08;3.03;;;1.40;;
24143;SDS011;12307;50.828;6.080;2022-09-21T08:23:36;5.18;;;1.75;;
24143;SDS011;12307;50.828;6.080;2022-09-21T08:26:06;3.97;;;1.40;;
24143;SDS011;12307;50.828;6.080;2022-09-21T08:28:34;3.97;;;1.70;;
24143;SDS011;12307;50.828;6.080;2022-09-21T08:31:00;3.28;;;1.52;;
24143;SDS011;12307;50.828;6.080;2022-09-21T08:33:27;4.10;;;1.65;;
24143;SDS011;12307;50.828;6.080;2022-09-21T08:35:53;3.55;;;1.48;;
24143;SDS011;12307;50.828;6.080;2022-09-21T08:38:19;6.13;;;1.70;;
24143;SDS011;12307;50.828;6.080;2022-09-21T08:40:46;5.63;;;1.67;;
24143;SDS011;12307;50.828;6.080;2022-09-21T08:43:14;3.53;;;1.40;;
24143;SDS011;12307;50.828;6.080;2022-09-21T08:45:43;5.95;;;1.30;;
24143;SDS011;12307;50.828;6.080;2022-09-21T08:48:10;3.35;;;1.40;;
24143;SDS011;12307;50.828;6.080;2022-09-21T08:50:43;4.43;;;1.73;;
24143;SDS011;12307;50.828;6.080;2022-09-21T08:53:13;2.45;;;1.20;;
24143;SDS011;12307;50.828;6.080;2022-09-21T08:55:42;2.83;;;1.20;;
24143;SDS011;12307;50.828;6.080;2022-09-21T08:58:12;3.70;;;1.20;;
24143;SDS011;12307;50.828;6.080;2022-09-21T09:00:45;3.08;;;1.70;;
24143;SDS011;12307;50.828;6.080;2022-09-21T09:03:17;2.97;;;1.20;;
24143;SDS011;12307;50.828;6.080;2022-09-21T09:05:54;3.05;;;1.30;;
24143;SDS011;12307;50.828;6.080;2022-09-21T09:11:23;5.25;;;1.40;;
24143;SDS011;12307;50.828;6.080;2022-09-21T09:14:24;6.22;;;1.45;;
24143;SDS011;12307;50.828;6.080;2022-09-21T09:17:08;4.07;;;1.40;;
24143;SDS011;12307;50.828;6.080;2022-09-21T09:19:49;2.67;;;1.48;;
24143;SDS011;12307;50.828;6.080;2022-09-21T09:22:20;4.82;;;1.63;;
24143;SDS011;12307;50.828;6.080;2022-09-21T09:24:51;2.78;;;1.17;;
24143;SDS011;12307;50.828;6.080;2022-09-21T09:27:22;3.90;;;1.48;;
24143;SDS011;12307;50.828;6.080;2022-09-21T09:29:54;2.40;;;1.27;;
24143;SDS011;12307;50.828;6.080;2022-09-21T09:32:26;4.32;;;1.30;;
24143;SDS011;12307;50.828;6.080;2022-09-21T09:35:04;4.30;;;1.35;;
24143;SDS011;12307;50.828;6.080;2022-09-21T09:37:37;5.32;;;1.45;;
24143;SDS011;12307;50.828;6.080;2022-09-21T09:40:06;5.50;;;1.40;;
24143;SDS011;12307;50.828;6.080;2022-09-21T09:42:41;4.85;;;1.50;;
24143;SDS011;12307;50.828;6.080;2022-09-21T09:45:26;4.78;;;1.50;;
24143;SDS011;12307;50.828;6.080;2022-09-21T09:48:02;4.65;;;1.48;;
24143;SDS011;12307;50.828;6.080;2022-09-21T09:50:44;4.97;;;1.50;;
24143;SDS011;12307;50.828;6.080;2022-09-21T09:53:11;3.22;;;1.15;;
24143;SDS011;12307;50.828;6.080;2022-09-21T09:55:40;5.82;;;1.55;;
24143;SDS011;12307;50.828;6.080;2022-09-21T09:58:14;3.00;;;1.55;;
24143;SDS011;12307;50.828;6.080;2022-09-21T10:00:43;3.85;;;1.30;;
24143;SDS011;12307;50.828;6.080;2022-09-21T10:03:14;3.88;;;1.30;;
24143;SDS011;12307;50.828;6.080;2022-09-21T10:05:41;8.70;;;2.00;;
24143;SDS011;12307;50.828;6.080;2022-09-21T10:08:13;2.75;;;1.17;;
24143;SDS011;12307;50.828;6.080;2022-09-21T10:11:08;4.80;;;1.35;;
24143;SDS011;12307;50.828;6.080;2022-09-21T10:13:36;4.88;;;1.67;;
24143;SDS011;12307;50.828;6.080;2022-09-21T10:16:18;4.40;;;1.50;;
24143;SDS011;12307;50.828;6.080;2022-09-21T10:18:46;5.25;;;1.40;;
24143;SDS011;12307;50.828;6.080;2022-09-21T10:21:18;4.05;;;1.27;;
24143;SDS011;12307;50.828;6.080;2022-09-21T10:23:46;3.17;;;1.40;;
24143;SDS011;12307;50.828;6.080;2022-09-21T10:26:14;3.83;;;1.45;;
24143;SDS011;12307;50.828;6.080;2022-09-21T10:28:53;4.50;;;1.67;;
24143;SDS011;12307;50.828;6.080;2022-09-21T10:31:22;4.90;;;1.45;;
24143;SDS011;12307;50.828;6.080;2022-09-21T10:33:50;3.35;;;1.40;;
24143;SDS011;12307;50.828;6.080;2022-09-21T10:36:25;5.88;;;1.50;;
24143;SDS011;12307;50.828;6.080;2022-09-21T10:38:52;4.22;;;1.42;;
24143;SDS011;12307;50.828;6.080;2022-09-21T10:41:19;3.20;;;1.40;;
24143;SDS011;12307;50.828;6.080;2022-09-21T10:43:45;5.25;;;1.65;;
24143;SDS011;12307;50.828;6.080;2022-09-21T10:46:11;4.15;;;1.15;;
24143;SDS011;12307;50.828;6.080;2022-09-21T10:48:39;5.35;;;1.40;;
24143;SDS011;12307;50.828;6.080;2022-09-21T10:51:17;5.32;;;1.38;;
24143;SDS011;12307;50.828;6.080;2022-09-21T10:53:48;4.28;;;1.38;;
24143;SDS011;12307;50.828;6.080;2022-09-21T10:56:14;3.28;;;1.50;;
24143;SDS011;12307;50.828;6.080;2022-09-21T11:01:41;3.65;;;1.30;;
24143;SDS011;12307;50.828;6.080;2022-09-21T11:04:10;6.68;;;1.48;;
24143;SDS011;12307;50.828;6.080;2022-09-21T11:06:40;5.80;;;1.52;;
24143;SDS011;12307;50.828;6.080;2022-09-21T11:09:10;4.07;;;1.35;;
24143;SDS011;12307;50.828;6.080;2022-09-21T11:11:42;4.90;;;1.55;;
24143;SDS011;12307;50.828;6.080;2022-09-21T11:14:15;5.20;;;1.33;;
24143;SDS011;12307;50.828;6.080;2022-09-21T11:16:54;3.42;;;1.30;;
24143;SDS011;12307;50.828;6.080;2022-09-21T11:19:27;3.40;;;1.20;;
24143;SDS011;12307;50.828;6.080;2022-09-21T11:21:59;5.25;;;1.25;;
24143;SDS011;12307;50.828;6.080;2022-09-21T11:24:32;4.07;;;1.42;;
24143;SDS011;12307;50.828;6.080;2022-09-21T11:27:04;3.95;;;1.20;;
24143;SDS011;12307;50.828;6.080;2022-09-21T11:29:36;5.65;;;1.58;;
24143;SDS011;12307;50.828;6.080;2022-09-21T11:32:11;6.35;;;1.27;;
24143;SDS011;12307;50.828;6.080;2022-09-21T11:34:50;4.32;;;1.20;;
24143;SDS011;12307;50.828;6.080;2022-09-21T11:37:41;5.65;;;1.20;;
24143;SDS011;12307;50.828;6.080;2022-09-21T11:40:18;5.15;;;1.38;;
24143;SDS011;12307;50.828;6.080;2022-09-21T11:45:53;4.20;;;1.27;;
24143;SDS011;12307;50.828;6.080;2022-09-21T11:48:29;6.32;;;1.30;;
24143;SDS011;12307;50.828;6.080;2022-09-21T11:51:14;3.40;;;1.25;;
24143;SDS011;12307;50.828;6.080;2022-09-21T11:54:04;5.05;;;1.20;;
24143;SDS011;12307;50.828;6.080;2022-09-21T11:56:45;3.78;;;1.38;;
24143;SDS011;12307;50.828;6.080;2022-09-21T12:05:11;3.05;;;1.27;;
24143;SDS011;12307;50.828;6.080;2022-09-21T12:07:50;2.80;;;1.15;;
24143;SDS011;12307;50.828;6.080;2022-09-21T12:10:36;4.32;;;1.20;;
24143;SDS011;12307;50.828;6.080;2022-09-21T12:13:10;2.20;;;1.13;;
24143;SDS011;12307;50.828;6.080;2022-09-21T12:15:46;2.90;;;1.38;;
24143;SDS011;12307;50.828;6.080;2022-09-21T12:18:21;3.55;;;1.40;;
24143;SDS011;12307;50.828;6.080;2022-09-21T12:20:55;4.75;;;1.27;;
24143;SDS011;12307;50.828;6.080;2022-09-21T12:23:29;1.67;;;1.10;;
24143;SDS011;12307;50.828;6.080;2022-09-21T12:26:07;4.47;;;1.20;;
24143;SDS011;12307;50.828;6.080;2022-09-21T12:28:35;3.22;;;1.20;;
24143;SDS011;12307;50.828;6.080;2022-09-21T12:31:08;5.30;;;1.00;;
24143;SDS011;12307;50.828;6.080;2022-09-21T12:33:40;5.20;;;1.23;;
24143;SDS011;12307;50.828;6.080;2022-09-21T12:36:11;3.75;;;1.00;;
24143;SDS011;12307;50.828;6.080;2022-09-21T12:38:43;4.75;;;1.25;;
24143;SDS011;12307;50.828;6.080;2022-09-21T12:41:15;2.33;;;0.90;;
24143;SDS011;12307;50.828;6.080;2022-09-21T12:43:46;4.47;;;1.23;;
24143;SDS011;12307;50.828;6.080;2022-09-21T12:46:16;2.05;;;1.02;;
24143;SDS011;12307;50.828;6.080;2022-09-21T12:48:45;3.35;;;1.40;;
24143;SDS011;12307;50.828;6.080;2022-09-21T12:51:13;4.72;;;1.50;;
24143;SDS011;12307;50.828;6.080;2022-09-21T12:53:44;4.47;;;1.33;;
24143;SDS011;12307;50.828;6.080;2022-09-21T12:56:14;4.45;;;1.00;;
24143;SDS011;12307;50.828;6.080;2022-09-21T12:59:05;4.10;;;1.08;;
24143;SDS011;12307;50.828;6.080;2022-09-21T13:01:42;5.05;;;1.35;;
24143;SDS011;12307;50.828;6.080;2022-09-21T13:04:17;4.75;;;1.27;;
24143;SDS011;12307;50.828;6.080;2022-09-21T13:09:48;2.72;;;1.00;;
24143;SDS011;12307;50.828;6.080;2022-09-21T13:12:16;2.75;;;1.00;;
24143;SDS011;12307;50.828;6.080;2022-09-21T13:14:46;4.20;;;1.20;;
24143;SDS011;12307;50.828;6.080;2022-09-21T13:17:18;2.45;;;1.00;;
24143;SDS011;12307;50.828;6.080;2022-09-21T13:19:54;4.47;;;1.15;;
24143;SDS011;12307;50.828;6.080;2022-09-21T13:22:22;4.57;;;1.40;;
24143;SDS011;12307;50.828;6.080;2022-09-21T13:24:58;6.25;;;1.13;;
24143;SDS011;12307;50.828;6.080;2022-09-21T13:30:30;2.90;;;1.15;;
24143;SDS011;12307;50.828;6.080;2022-09-21T13:32:57;2.83;;;0.93;;
24143;SDS011;12307;50.828;6.080;2022-09-21T13:41:30;2.00;;;0.80;;
24143;SDS011;12307;50.828;6.080;2022-09-21T13:43:59;4.35;;;1.10;;
24143;SDS011;12307;50.828;6.080;2022-09-21T13:46:44;4.82;;;1.00;;
24143;SDS011;12307;50.828;6.080;2022-09-21T13:49:14;2.58;;;1.00;;
24143;SDS011;12307;50.828;6.080;2022-09-21T13:51:50;3.20;;;1.05;;
24143;SDS011;12307;50.828;6.080;2022-09-21T13:54:20;4.50;;;1.20;;
24143;SDS011;12307;50.828;6.080;2022-09-21T13:56:57;4.60;;;1.27;;
24143;SDS011;12307;50.828;6.080;2022-09-21T13:59:28;1.98;;;1.15;;
24143;SDS011;12307;50.828;6.080;2022-09-21T14:01:55;2.85;;;0.95;;
24143;SDS011;12307;50.828;6.080;2022-09-21T14:04:23;3.40;;;1.25;;
24143;SDS011;12307;50.828;6.080;2022-09-21T14:06:51;3.47;;;1.00;;
24143;SDS011;12307;50.828;6.080;2022-09-21T14:09:21;2.85;;;0.80;;
24143;SDS011;12307;50.828;6.080;2022-09-21T14:11:52;3.40;;;1.20;;
24143;SDS011;12307;50.828;6.080;2022-09-21T14:14:23;2.17;;;0.98;;
24143;SDS011;12307;50.828;6.080;2022-09-21T14:16:54;2.85;;;1.08;;
24143;SDS011;12307;50.828;6.080;2022-09-21T14:22:40;2.67;;;1.00;;
24143;SDS011;12307;50.828;6.080;2022-09-21T14:28:13;3.08;;;0.80;;
24143;SDS011;12307;50.828;6.080;2022-09-21T14:30:48;3.55;;;0.95;;
24143;SDS011;12307;50.828;6.080;2022-09-21T14:33:29;2.30;;;1.10;;
24143;SDS011;12307;50.828;6.080;2022-09-21T14:35:59;2.58;;;0.93;;
24143;SDS011;12307;50.828;6.080;2022-09-21T14:38:34;2.45;;;1.33;;
24143;SDS011;12307;50.828;6.080;2022-09-21T14:41:06;3.00;;;1.17;;
24143;SDS011;12307;50.828;6.080;2022-09-21T14:43:33;1.67;;;0.95;;
24143;SDS011;12307;50.828;6.080;2022-09-21T14:46:16;2.88;;;0.88;;
24143;SDS011;12307;50.828;6.080;2022-09-21T14:49:04;3.33;;;1.00;;
24143;SDS011;12307;50.828;6.080;2022-09-21T14:51:45;4.32;;;1.30;;
24143;SDS011;12307;50.828;6.080;2022-09-21T14:54:26;2.25;;;1.30;;
24143;SDS011;12307;50.828;6.080;2022-09-21T14:57:08;2.03;;;1.17;;
24143;SDS011;12307;50.828;6.080;2022-09-21T14:59:49;2.78;;;0.90;;
24143;SDS011;12307;50.828;6.080;2022-09-21T15:02:26;4.28;;;1.10;;
24143;SDS011;12307;50.828;6.080;2022-09-21T15:05:00;2.28;;;0.90;;
24143;SDS011;12307;50.828;6.080;2022-09-21T15:07:37;1.70;;;0.90;;
24143;SDS011;12307;50.828;6.080;2022-09-21T15:10:29;3.33;;;1.27;;
24143;SDS011;12307;50.828;6.080;2022-09-21T15:13:19;3.58;;;0.88;;
24143;SDS011;12307;50.828;6.080;2022-09-21T15:16:10;4.32;;;1.02;;
24143;SDS011;12307;50.828;6.080;2022-09-21T15:18:43;4.32;;;1.10;;
24143;SDS011;12307;50.828;6.080;2022-09-21T15:21:17;4.18;;;1.05;;
24143;SDS011;12307;50.828;6.080;2022-09-21T15:23:46;3.75;;;1.00;;
24143;SDS011;12307;50.828;6.080;2022-09-21T15:26:14;3.20;;;0.80;;
24143;SDS011;12307;50.828;6.080;2022-09-21T15:28:46;3.80;;;0.90;;
24143;SDS011;12307;50.828;6.080;2022-09-21T15:31:15;3.47;;;1.00;;
24143;SDS011;12307;50.828;6.080;2022-09-21T15:33:43;2.50;;;1.05;;
24143;SDS011;12307;50.828;6.080;2022-09-21T15:36:11;2.67;;;1.05;;
24143;SDS011;12307;50.828;6.080;2022-09-21T15:38:38;2.13;;;1.20;;
24143;SDS011;12307;50.828;6.080;2022-09-21T15:41:04;3.47;;;1.33;;